sensor_id;sensor_type;location;lat;lon;timestamp;temperature;humidity
45983;DHT22;31711;47.158;7.346;2023-12-07T00:00:08;1.00;99.90
45983;DHT22;31711;47.158;7.346;2023-12-07T00:02:36;1.00;99.90
45983;DHT22;31711;47.158;7.346;2023-12-07T00:05:02;0.90;99.90
45983;DHT22;31711;47.158;7.346;2023-12-07T00:07:29;0.90;99.90
45983;DHT22;31711;47.158;7.346;2023-12-07T00:09:55;1.00;99.90
45983;DHT22;31711;47.158;7.346;2023-12-07T00:12:21;1.00;99.90
45983;DHT22;31711;47.158;7.346;2023-12-07T00:14:47;1.00;99.90
45983;DHT22;31711;47.158;7.346;2023-12-07T00:17:13;1.00;99.90
45983;DHT22;31711;47.158;7.346;2023-12-07T00:19:40;0.90;99.90
45983;DHT22;31711;47.158;7.346;2023-12-07T00:22:06;0.80;99.90
45983;DHT22;31711;47.158;7.346;2023-12-07T00:24:32;0.70;99.90
45983;DHT22;31711;47.158;7.346;2023-12-07T00:26:58;0.70;99.90
45983;DHT22;31711;47.158;7.346;2023-12-07T00:29:24;0.50;99.90
45983;DHT22;31711;47.158;7.346;2023-12-07T00:31:50;0.40;99.90
45983;DHT22;31711;47.158;7.346;2023-12-07T00:34:17;0.40;99.90
45983;DHT22;31711;47.158;7.346;2023-12-07T00:36:44;0.40;99.90
45983;DHT22;31711;47.158;7.346;2023-12-07T00:39:10;0.30;99.90
45983;DHT22;31711;47.158;7.346;2023-12-07T00:41:36;0.20;99.90
45983;DHT22;31711;47.158;7.346;2023-12-07T00:44:02;0.20;99.90
45983;DHT22;31711;47.158;7.346;2023-12-07T00:46:28;0.10;99.90
45983;DHT22;31711;47.158;7.346;2023-12-07T00:48:54;0.10;99.90
45983;DHT22;31711;47.158;7.346;2023-12-07T00:51:20;0.10;99.90
45983;DHT22;31711;47.158;7.346;2023-12-07T00:53:46;0.00;99.90
45983;DHT22;31711;47.158;7.346;2023-12-07T00:56:12;0.00;99.90
45983;DHT22;31711;47.158;7.346;2023-12-07T00:58:38;0.00;99.90
45983;DHT22;31711;47.158;7.346;2023-12-07T01:01:04;0.00;99.90
45983;DHT22;31711;47.158;7.346;2023-12-07T01:03:30;-0.10;99.90
45983;DHT22;31711;47.158;7.346;2023-12-07T01:05:56;-0.10;99.90
45983;DHT22;31711;47.158;7.346;2023-12-07T01:08:22;-0.10;99.90
45983;DHT22;31711;47.158;7.346;2023-12-07T01:10:48;-0.20;99.90
45983;DHT22;31711;47.158;7.346;2023-12-07T01:13:14;-0.30;99.90
45983;DHT22;31711;47.158;7.346;2023-12-07T01:15:40;-0.20;99.90
45983;DHT22;31711;47.158;7.346;2023-12-07T01:18:06;-0.20;99.90
45983;DHT22;31711;47.158;7.346;2023-12-07T01:20:32;-0.30;99.90
45983;DHT22;31711;47.158;7.346;2023-12-07T01:22:58;-0.30;99.90
45983;DHT22;31711;47.158;7.346;2023-12-07T01:25:24;-0.30;99.90
45983;DHT22;31711;47.158;7.346;2023-12-07T01:27:50;-0.30;99.90
45983;DHT22;31711;47.158;7.346;2023-12-07T01:30:16;-0.20;99.90
45983;DHT22;31711;47.158;7.346;2023-12-07T01:32:42;-0.20;99.90
45983;DHT22;31711;47.158;7.346;2023-12-07T01:35:08;-0.20;99.90
45983;DHT22;31711;47.158;7.346;2023-12-07T01:37:34;-0.20;99.90
45983;DHT22;31711;47.158;7.346;2023-12-07T01:40:01;-0.20;99.90
45983;DHT22;31711;47.158;7.346;2023-12-07T01:42:31;-0.20;99.90
45983;DHT22;31711;47.158;7.346;2023-12-07T01:44:57;-0.20;99.90
45983;DHT22;31711;47.158;7.346;2023-12-07T01:47:23;-0.10;99.90
45983;DHT22;31711;47.158;7.346;2023-12-07T01:49:49;-0.10;99.90
45983;DHT22;31711;47.158;7.346;2023-12-07T01:52:15;-0.20;99.90
45983;DHT22;31711;47.158;7.346;2023-12-07T01:54:42;-0.20;99.90
45983;DHT22;31711;47.158;7.346;2023-12-07T01:57:08;-0.20;99.90
45983;DHT22;31711;47.158;7.346;2023-12-07T01:59:34;-0.30;99.90
45983;DHT22;31711;47.158;7.346;2023-12-07T02:02:00;-0.30;99.90
45983;DHT22;31711;47.158;7.346;2023-12-07T02:04:26;-0.30;99.90
45983;DHT22;31711;47.158;7.346;2023-12-07T02:06:54;-0.30;99.90
45983;DHT22;31711;47.158;7.346;2023-12-07T02:09:22;-0.30;99.90
45983;DHT22;31711;47.158;7.346;2023-12-07T02:11:48;-0.30;99.90
45983;DHT22;31711;47.158;7.346;2023-12-07T02:14:14;-0.30;99.90
45983;DHT22;31711;47.158;7.346;2023-12-07T02:16:47;-0.30;99.90
45983;DHT22;31711;47.158;7.346;2023-12-07T02:22:12;-0.30;99.90
45983;DHT22;31711;47.158;7.346;2023-12-07T02:24:54;-0.30;99.90
45983;DHT22;31711;47.158;7.346;2023-12-07T02:27:53;-0.40;99.90
45983;DHT22;31711;47.158;7.346;2023-12-07T02:30:19;-0.40;99.90
45983;DHT22;31711;47.158;7.346;2023-12-07T02:32:45;-0.60;99.90
45983;DHT22;31711;47.158;7.346;2023-12-07T02:35:12;-0.50;99.90
45983;DHT22;31711;47.158;7.346;2023-12-07T02:37:44;-0.50;99.90
45983;DHT22;31711;47.158;7.346;2023-12-07T02:40:12;-0.50;99.90
45983;DHT22;31711;47.158;7.346;2023-12-07T02:42:41;-0.40;99.90
45983;DHT22;31711;47.158;7.346;2023-12-07T02:45:10;-0.50;99.90
45983;DHT22;31711;47.158;7.346;2023-12-07T02:47:36;-0.40;99.90
45983;DHT22;31711;47.158;7.346;2023-12-07T02:50:04;-0.40;99.90
45983;DHT22;31711;47.158;7.346;2023-12-07T02:52:31;-0.40;99.90
45983;DHT22;31711;47.158;7.346;2023-12-07T02:54:57;-0.40;99.90
45983;DHT22;31711;47.158;7.346;2023-12-07T02:57:23;-0.30;99.90
45983;DHT22;31711;47.158;7.346;2023-12-07T02:59:49;-0.40;99.90
45983;DHT22;31711;47.158;7.346;2023-12-07T03:02:15;-0.40;99.90
45983;DHT22;31711;47.158;7.346;2023-12-07T03:04:41;-0.40;99.90
45983;DHT22;31711;47.158;7.346;2023-12-07T03:07:07;-0.40;99.90
45983;DHT22;31711;47.158;7.346;2023-12-07T03:09:33;-0.40;99.90
45983;DHT22;31711;47.158;7.346;2023-12-07T03:11:59;-0.50;99.90
45983;DHT22;31711;47.158;7.346;2023-12-07T03:14:25;-0.50;99.90
45983;DHT22;31711;47.158;7.346;2023-12-07T03:16:51;-0.50;99.90
45983;DHT22;31711;47.158;7.346;2023-12-07T03:19:17;-0.50;99.90
45983;DHT22;31711;47.158;7.346;2023-12-07T03:21:43;-0.50;99.90
45983;DHT22;31711;47.158;7.346;2023-12-07T03:24:09;-0.60;99.90
45983;DHT22;31711;47.158;7.346;2023-12-07T03:26:37;-0.70;99.90
45983;DHT22;31711;47.158;7.346;2023-12-07T03:29:04;-0.70;99.90
45983;DHT22;31711;47.158;7.346;2023-12-07T03:31:30;-0.70;99.90
45983;DHT22;31711;47.158;7.346;2023-12-07T03:33:56;-0.80;99.90
45983;DHT22;31711;47.158;7.346;2023-12-07T03:36:22;-0.80;99.90
45983;DHT22;31711;47.158;7.346;2023-12-07T03:38:49;-0.80;99.90
45983;DHT22;31711;47.158;7.346;2023-12-07T03:41:15;-0.90;99.90
45983;DHT22;31711;47.158;7.346;2023-12-07T03:43:41;-0.90;99.90
45983;DHT22;31711;47.158;7.346;2023-12-07T03:46:08;-0.90;99.90
45983;DHT22;31711;47.158;7.346;2023-12-07T03:48:34;-0.90;99.90
45983;DHT22;31711;47.158;7.346;2023-12-07T03:51:00;-0.90;99.90
45983;DHT22;31711;47.158;7.346;2023-12-07T03:53:27;-0.90;99.90
45983;DHT22;31711;47.158;7.346;2023-12-07T03:55:53;-1.00;99.90
45983;DHT22;31711;47.158;7.346;2023-12-07T03:58:19;-1.00;99.90
45983;DHT22;31711;47.158;7.346;2023-12-07T04:00:45;-1.00;99.90
45983;DHT22;31711;47.158;7.346;2023-12-07T04:03:12;-1.00;99.90
45983;DHT22;31711;47.158;7.346;2023-12-07T04:05:38;-1.00;99.90
45983;DHT22;31711;47.158;7.346;2023-12-07T04:08:04;-1.20;99.90
45983;DHT22;31711;47.158;7.346;2023-12-07T04:10:33;-1.40;99.90
45983;DHT22;31711;47.158;7.346;2023-12-07T04:12:59;-1.30;99.90
45983;DHT22;31711;47.158;7.346;2023-12-07T04:15:24;-1.30;99.90
45983;DHT22;31711;47.158;7.346;2023-12-07T04:17:51;-1.10;99.90
45983;DHT22;31711;47.158;7.346;2023-12-07T04:20:18;-1.10;99.90
45983;DHT22;31711;47.158;7.346;2023-12-07T04:22:44;-1.10;99.90
45983;DHT22;31711;47.158;7.346;2023-12-07T04:25:11;-1.10;99.90
45983;DHT22;31711;47.158;7.346;2023-12-07T04:27:37;-1.20;99.90
45983;DHT22;31711;47.158;7.346;2023-12-07T04:30:03;-1.40;99.90
45983;DHT22;31711;47.158;7.346;2023-12-07T04:32:29;-1.40;99.90
45983;DHT22;31711;47.158;7.346;2023-12-07T04:34:55;-1.30;99.90
45983;DHT22;31711;47.158;7.346;2023-12-07T04:37:21;-1.40;99.90
45983;DHT22;31711;47.158;7.346;2023-12-07T04:39:47;-1.40;99.90
45983;DHT22;31711;47.158;7.346;2023-12-07T04:42:13;-1.40;99.90
45983;DHT22;31711;47.158;7.346;2023-12-07T04:44:39;-1.20;99.90
45983;DHT22;31711;47.158;7.346;2023-12-07T04:47:05;-1.00;99.90
45983;DHT22;31711;47.158;7.346;2023-12-07T04:49:31;-0.90;99.90
45983;DHT22;31711;47.158;7.346;2023-12-07T04:51:57;-0.90;99.90
45983;DHT22;31711;47.158;7.346;2023-12-07T04:54:23;-0.90;99.90
45983;DHT22;31711;47.158;7.346;2023-12-07T04:56:49;-1.00;99.90
45983;DHT22;31711;47.158;7.346;2023-12-07T04:59:15;-1.00;99.90
45983;DHT22;31711;47.158;7.346;2023-12-07T05:01:41;-1.00;99.90
45983;DHT22;31711;47.158;7.346;2023-12-07T05:04:07;-0.90;99.90
45983;DHT22;31711;47.158;7.346;2023-12-07T05:06:35;-1.00;99.90
45983;DHT22;31711;47.158;7.346;2023-12-07T05:09:01;-1.00;99.90
45983;DHT22;31711;47.158;7.346;2023-12-07T05:11:27;-1.00;99.90
45983;DHT22;31711;47.158;7.346;2023-12-07T05:13:53;-0.90;99.90
45983;DHT22;31711;47.158;7.346;2023-12-07T05:16:19;-0.90;99.90
45983;DHT22;31711;47.158;7.346;2023-12-07T05:18:45;-0.90;99.90
45983;DHT22;31711;47.158;7.346;2023-12-07T05:21:11;-0.90;99.90
45983;DHT22;31711;47.158;7.346;2023-12-07T05:23:37;-1.10;99.90
45983;DHT22;31711;47.158;7.346;2023-12-07T05:26:03;-1.10;99.90
45983;DHT22;31711;47.158;7.346;2023-12-07T05:28:29;-1.10;99.90
45983;DHT22;31711;47.158;7.346;2023-12-07T05:30:55;-1.10;99.90
45983;DHT22;31711;47.158;7.346;2023-12-07T05:33:22;-1.10;99.90
45983;DHT22;31711;47.158;7.346;2023-12-07T05:35:48;-1.10;99.90
45983;DHT22;31711;47.158;7.346;2023-12-07T05:38:14;-1.10;99.90
45983;DHT22;31711;47.158;7.346;2023-12-07T05:40:40;-1.20;99.90
45983;DHT22;31711;47.158;7.346;2023-12-07T05:43:07;-1.30;99.90
45983;DHT22;31711;47.158;7.346;2023-12-07T05:45:33;-1.30;99.90
45983;DHT22;31711;47.158;7.346;2023-12-07T05:47:59;-1.30;99.90
45983;DHT22;31711;47.158;7.346;2023-12-07T05:50:25;-1.30;99.90
45983;DHT22;31711;47.158;7.346;2023-12-07T05:52:52;-1.30;99.90
45983;DHT22;31711;47.158;7.346;2023-12-07T05:55:18;-1.30;99.90
45983;DHT22;31711;47.158;7.346;2023-12-07T05:57:46;-1.30;99.90
45983;DHT22;31711;47.158;7.346;2023-12-07T06:00:13;-1.40;99.90
45983;DHT22;31711;47.158;7.346;2023-12-07T06:02:39;-1.50;99.90
45983;DHT22;31711;47.158;7.346;2023-12-07T06:05:06;-1.50;99.90
45983;DHT22;31711;47.158;7.346;2023-12-07T06:07:32;-1.60;99.90
45983;DHT22;31711;47.158;7.346;2023-12-07T06:09:59;-1.60;99.90
45983;DHT22;31711;47.158;7.346;2023-12-07T06:12:25;-1.50;99.90
45983;DHT22;31711;47.158;7.346;2023-12-07T06:14:50;-1.50;99.90
45983;DHT22;31711;47.158;7.346;2023-12-07T06:17:16;-1.50;99.90
45983;DHT22;31711;47.158;7.346;2023-12-07T06:19:42;-1.40;99.90
45983;DHT22;31711;47.158;7.346;2023-12-07T06:22:08;-1.40;99.90
45983;DHT22;31711;47.158;7.346;2023-12-07T06:24:34;-1.30;99.90
45983;DHT22;31711;47.158;7.346;2023-12-07T06:27:02;-1.30;99.90
45983;DHT22;31711;47.158;7.346;2023-12-07T06:29:28;-1.30;99.90
45983;DHT22;31711;47.158;7.346;2023-12-07T06:31:55;-1.40;99.90
45983;DHT22;31711;47.158;7.346;2023-12-07T06:34:21;-1.40;99.90
45983;DHT22;31711;47.158;7.346;2023-12-07T06:36:47;-1.30;99.90
45983;DHT22;31711;47.158;7.346;2023-12-07T06:39:13;-1.20;99.90
45983;DHT22;31711;47.158;7.346;2023-12-07T06:41:40;-1.30;99.90
45983;DHT22;31711;47.158;7.346;2023-12-07T06:44:09;-1.20;99.90
45983;DHT22;31711;47.158;7.346;2023-12-07T06:46:35;-1.20;99.90
45983;DHT22;31711;47.158;7.346;2023-12-07T06:49:01;-1.20;99.90
45983;DHT22;31711;47.158;7.346;2023-12-07T06:51:27;-1.20;99.90
45983;DHT22;31711;47.158;7.346;2023-12-07T06:53:53;-1.20;99.90
45983;DHT22;31711;47.158;7.346;2023-12-07T06:56:18;-1.10;99.90
45983;DHT22;31711;47.158;7.346;2023-12-07T06:58:44;-1.10;99.90
45983;DHT22;31711;47.158;7.346;2023-12-07T07:01:10;-1.00;99.90
45983;DHT22;31711;47.158;7.346;2023-12-07T07:03:36;-1.00;99.90
45983;DHT22;31711;47.158;7.346;2023-12-07T07:06:02;-1.00;99.90
45983;DHT22;31711;47.158;7.346;2023-12-07T07:08:28;-0.90;99.90
45983;DHT22;31711;47.158;7.346;2023-12-07T07:10:55;-0.80;99.90
45983;DHT22;31711;47.158;7.346;2023-12-07T07:13:21;-0.80;99.90
45983;DHT22;31711;47.158;7.346;2023-12-07T07:15:47;-0.70;99.90
45983;DHT22;31711;47.158;7.346;2023-12-07T07:18:14;-0.80;99.90
45983;DHT22;31711;47.158;7.346;2023-12-07T07:20:40;-0.70;99.90
45983;DHT22;31711;47.158;7.346;2023-12-07T07:23:06;-0.70;99.90
45983;DHT22;31711;47.158;7.346;2023-12-07T07:25:34;-0.70;99.90
45983;DHT22;31711;47.158;7.346;2023-12-07T07:28:00;-0.60;99.90
45983;DHT22;31711;47.158;7.346;2023-12-07T07:30:26;-0.50;99.90
45983;DHT22;31711;47.158;7.346;2023-12-07T07:32:52;-0.60;99.90
45983;DHT22;31711;47.158;7.346;2023-12-07T07:35:18;-0.60;99.90
45983;DHT22;31711;47.158;7.346;2023-12-07T07:37:44;-0.70;99.90
45983;DHT22;31711;47.158;7.346;2023-12-07T07:40:11;-0.60;99.90
45983;DHT22;31711;47.158;7.346;2023-12-07T07:42:40;-0.70;99.90
45983;DHT22;31711;47.158;7.346;2023-12-07T07:45:09;-0.70;99.90
45983;DHT22;31711;47.158;7.346;2023-12-07T07:47:35;-0.80;99.90
45983;DHT22;31711;47.158;7.346;2023-12-07T07:50:01;-0.70;99.90
45983;DHT22;31711;47.158;7.346;2023-12-07T07:52:34;-0.70;99.90
45983;DHT22;31711;47.158;7.346;2023-12-07T07:55:05;-0.50;99.90
45983;DHT22;31711;47.158;7.346;2023-12-07T07:57:31;-0.60;99.90
45983;DHT22;31711;47.158;7.346;2023-12-07T07:59:58;-0.50;99.90
45983;DHT22;31711;47.158;7.346;2023-12-07T08:02:24;-0.50;99.90
45983;DHT22;31711;47.158;7.346;2023-12-07T08:04:50;-0.40;99.90
45983;DHT22;31711;47.158;7.346;2023-12-07T08:07:17;-0.40;99.90
45983;DHT22;31711;47.158;7.346;2023-12-07T08:09:43;-0.50;99.90
45983;DHT22;31711;47.158;7.346;2023-12-07T08:12:09;-0.40;99.90
45983;DHT22;31711;47.158;7.346;2023-12-07T08:14:36;-0.40;99.90
45983;DHT22;31711;47.158;7.346;2023-12-07T08:17:03;-0.40;99.90
45983;DHT22;31711;47.158;7.346;2023-12-07T08:19:29;-0.40;99.90
45983;DHT22;31711;47.158;7.346;2023-12-07T08:21:55;-0.40;99.90
45983;DHT22;31711;47.158;7.346;2023-12-07T08:24:21;-0.40;99.90
45983;DHT22;31711;47.158;7.346;2023-12-07T08:26:47;-0.40;99.90
45983;DHT22;31711;47.158;7.346;2023-12-07T08:29:13;-0.40;99.90
45983;DHT22;31711;47.158;7.346;2023-12-07T08:31:42;-0.40;99.90
45983;DHT22;31711;47.158;7.346;2023-12-07T08:34:08;-0.30;99.90
45983;DHT22;31711;47.158;7.346;2023-12-07T08:36:34;-0.40;99.90
45983;DHT22;31711;47.158;7.346;2023-12-07T08:39:00;-0.40;99.90
45983;DHT22;31711;47.158;7.346;2023-12-07T08:41:26;-0.40;99.90
45983;DHT22;31711;47.158;7.346;2023-12-07T08:43:52;-0.30;99.90
45983;DHT22;31711;47.158;7.346;2023-12-07T08:46:18;-0.20;99.90
45983;DHT22;31711;47.158;7.346;2023-12-07T08:48:44;-0.30;99.90
45983;DHT22;31711;47.158;7.346;2023-12-07T08:51:10;-0.20;99.90
45983;DHT22;31711;47.158;7.346;2023-12-07T08:53:38;0.00;99.90
45983;DHT22;31711;47.158;7.346;2023-12-07T08:56:04;0.00;99.90
45983;DHT22;31711;47.158;7.346;2023-12-07T08:58:30;0.10;99.90
45983;DHT22;31711;47.158;7.346;2023-12-07T09:00:56;0.10;99.90
45983;DHT22;31711;47.158;7.346;2023-12-07T09:03:22;0.30;99.90
45983;DHT22;31711;47.158;7.346;2023-12-07T09:05:53;0.30;99.90
45983;DHT22;31711;47.158;7.346;2023-12-07T09:08:19;0.50;99.90
45983;DHT22;31711;47.158;7.346;2023-12-07T09:10:45;0.50;99.90
45983;DHT22;31711;47.158;7.346;2023-12-07T09:13:11;0.40;99.90
45983;DHT22;31711;47.158;7.346;2023-12-07T09:15:37;0.60;99.90
45983;DHT22;31711;47.158;7.346;2023-12-07T09:18:03;0.70;99.90
45983;DHT22;31711;47.158;7.346;2023-12-07T09:20:29;0.80;99.90
45983;DHT22;31711;47.158;7.346;2023-12-07T09:22:56;0.70;99.90
45983;DHT22;31711;47.158;7.346;2023-12-07T09:25:23;0.80;99.90
45983;DHT22;31711;47.158;7.346;2023-12-07T09:27:49;0.90;99.90
45983;DHT22;31711;47.158;7.346;2023-12-07T09:30:17;1.10;99.90
45983;DHT22;31711;47.158;7.346;2023-12-07T09:32:43;1.00;99.90
45983;DHT22;31711;47.158;7.346;2023-12-07T09:35:09;1.00;99.90
45983;DHT22;31711;47.158;7.346;2023-12-07T09:37:40;1.00;99.90
45983;DHT22;31711;47.158;7.346;2023-12-07T09:40:07;1.10;99.90
45983;DHT22;31711;47.158;7.346;2023-12-07T09:42:33;1.00;99.90
45983;DHT22;31711;47.158;7.346;2023-12-07T09:44:59;1.00;99.90
45983;DHT22;31711;47.158;7.346;2023-12-07T09:47:27;1.00;99.90
45983;DHT22;31711;47.158;7.346;2023-12-07T09:49:54;1.00;99.90
45983;DHT22;31711;47.158;7.346;2023-12-07T09:52:21;1.10;99.90
45983;DHT22;31711;47.158;7.346;2023-12-07T09:54:49;1.20;99.90
45983;DHT22;31711;47.158;7.346;2023-12-07T09:57:16;1.20;99.90
45983;DHT22;31711;47.158;7.346;2023-12-07T09:59:42;1.10;99.90
45983;DHT22;31711;47.158;7.346;2023-12-07T10:02:08;1.10;99.90
45983;DHT22;31711;47.158;7.346;2023-12-07T10:04:34;1.00;99.90
45983;DHT22;31711;47.158;7.346;2023-12-07T10:07:00;1.10;99.90
45983;DHT22;31711;47.158;7.346;2023-12-07T10:09:26;1.10;99.90
45983;DHT22;31711;47.158;7.346;2023-12-07T10:12:05;1.10;99.90
45983;DHT22;31711;47.158;7.346;2023-12-07T10:14:31;1.20;99.90
45983;DHT22;31711;47.158;7.346;2023-12-07T10:16:58;1.20;99.90
45983;DHT22;31711;47.158;7.346;2023-12-07T10:19:25;1.30;99.90
45983;DHT22;31711;47.158;7.346;2023-12-07T10:21:52;1.30;99.90
45983;DHT22;31711;47.158;7.346;2023-12-07T10:24:20;1.40;99.90
45983;DHT22;31711;47.158;7.346;2023-12-07T10:26:49;1.60;99.90
45983;DHT22;31711;47.158;7.346;2023-12-07T10:29:18;1.80;99.90
45983;DHT22;31711;47.158;7.346;2023-12-07T10:31:45;1.90;99.90
45983;DHT22;31711;47.158;7.346;2023-12-07T10:34:13;2.00;99.90
45983;DHT22;31711;47.158;7.346;2023-12-07T10:36:45;1.90;99.90
45983;DHT22;31711;47.158;7.346;2023-12-07T10:39:12;2.00;99.90
45983;DHT22;31711;47.158;7.346;2023-12-07T10:41:39;2.00;99.90
45983;DHT22;31711;47.158;7.346;2023-12-07T10:44:09;1.70;99.90
45983;DHT22;31711;47.158;7.346;2023-12-07T10:46:39;1.60;99.90
45983;DHT22;31711;47.158;7.346;2023-12-07T10:49:12;1.60;99.90
45983;DHT22;31711;47.158;7.346;2023-12-07T10:51:50;1.60;99.90
45983;DHT22;31711;47.158;7.346;2023-12-07T10:54:22;1.70;99.90
45983;DHT22;31711;47.158;7.346;2023-12-07T10:56:51;1.80;99.90
45983;DHT22;31711;47.158;7.346;2023-12-07T10:59:17;1.80;99.90
45983;DHT22;31711;47.158;7.346;2023-12-07T11:01:43;1.80;99.90
45983;DHT22;31711;47.158;7.346;2023-12-07T11:04:12;1.70;99.90
45983;DHT22;31711;47.158;7.346;2023-12-07T11:06:40;1.70;99.90
45983;DHT22;31711;47.158;7.346;2023-12-07T11:09:09;1.80;99.90
45983;DHT22;31711;47.158;7.346;2023-12-07T11:11:44;1.90;99.90
45983;DHT22;31711;47.158;7.346;2023-12-07T11:14:12;2.00;99.90
45983;DHT22;31711;47.158;7.346;2023-12-07T11:16:43;2.00;99.90
45983;DHT22;31711;47.158;7.346;2023-12-07T11:22:10;1.60;99.90
45983;DHT22;31711;47.158;7.346;2023-12-07T11:24:36;1.50;99.90
45983;DHT22;31711;47.158;7.346;2023-12-07T11:27:02;1.50;99.90
45983;DHT22;31711;47.158;7.346;2023-12-07T11:29:29;1.50;99.90
45983;DHT22;31711;47.158;7.346;2023-12-07T11:31:56;1.50;99.90
45983;DHT22;31711;47.158;7.346;2023-12-07T11:34:42;1.60;99.90
45983;DHT22;31711;47.158;7.346;2023-12-07T11:37:10;1.70;99.90
45983;DHT22;31711;47.158;7.346;2023-12-07T11:42:15;1.70;99.90
45983;DHT22;31711;47.158;7.346;2023-12-07T11:44:43;1.60;99.90
45983;DHT22;31711;47.158;7.346;2023-12-07T11:47:16;1.60;99.90
45983;DHT22;31711;47.158;7.346;2023-12-07T11:49:43;1.60;99.90
45983;DHT22;31711;47.158;7.346;2023-12-07T11:52:19;1.70;99.90
45983;DHT22;31711;47.158;7.346;2023-12-07T11:54:46;1.80;99.90
45983;DHT22;31711;47.158;7.346;2023-12-07T11:57:14;1.80;99.90
45983;DHT22;31711;47.158;7.346;2023-12-07T11:59:41;1.90;99.90
45983;DHT22;31711;47.158;7.346;2023-12-07T12:02:07;2.10;99.90
45983;DHT22;31711;47.158;7.346;2023-12-07T12:04:33;2.00;99.90
45983;DHT22;31711;47.158;7.346;2023-12-07T12:06:59;2.20;99.90
45983;DHT22;31711;47.158;7.346;2023-12-07T12:09:25;2.30;99.90
45983;DHT22;31711;47.158;7.346;2023-12-07T12:11:51;2.40;99.90
45983;DHT22;31711;47.158;7.346;2023-12-07T12:14:17;2.50;99.90
45983;DHT22;31711;47.158;7.346;2023-12-07T12:16:44;2.40;99.90
45983;DHT22;31711;47.158;7.346;2023-12-07T12:19:11;2.10;99.90
45983;DHT22;31711;47.158;7.346;2023-12-07T12:21:37;2.20;99.90
45983;DHT22;31711;47.158;7.346;2023-12-07T12:24:07;2.30;99.90
45983;DHT22;31711;47.158;7.346;2023-12-07T12:26:35;2.50;99.90
45983;DHT22;31711;47.158;7.346;2023-12-07T12:29:02;2.50;99.90
45983;DHT22;31711;47.158;7.346;2023-12-07T12:31:29;2.60;99.90
45983;DHT22;31711;47.158;7.346;2023-12-07T12:33:55;2.70;99.90
45983;DHT22;31711;47.158;7.346;2023-12-07T12:36:21;2.70;99.90
45983;DHT22;31711;47.158;7.346;2023-12-07T12:38:52;2.80;99.90
45983;DHT22;31711;47.158;7.346;2023-12-07T12:41:27;2.90;99.90
45983;DHT22;31711;47.158;7.346;2023-12-07T12:43:56;3.00;99.90
45983;DHT22;31711;47.158;7.346;2023-12-07T12:46:22;2.90;99.90
45983;DHT22;31711;47.158;7.346;2023-12-07T12:51:19;3.10;99.90
45983;DHT22;31711;47.158;7.346;2023-12-07T12:53:46;2.80;99.90
45983;DHT22;31711;47.158;7.346;2023-12-07T12:56:15;2.80;99.90
45983;DHT22;31711;47.158;7.346;2023-12-07T12:58:42;2.80;99.90
45983;DHT22;31711;47.158;7.346;2023-12-07T13:01:08;2.90;99.90
45983;DHT22;31711;47.158;7.346;2023-12-07T13:03:34;2.80;99.90
45983;DHT22;31711;47.158;7.346;2023-12-07T13:06:00;2.80;99.90
45983;DHT22;31711;47.158;7.346;2023-12-07T13:08:26;2.60;99.90
45983;DHT22;31711;47.158;7.346;2023-12-07T13:10:52;2.50;99.90
45983;DHT22;31711;47.158;7.346;2023-12-07T13:13:18;2.50;99.90
45983;DHT22;31711;47.158;7.346;2023-12-07T13:15:44;2.60;99.90
45983;DHT22;31711;47.158;7.346;2023-12-07T13:18:10;2.70;99.90
45983;DHT22;31711;47.158;7.346;2023-12-07T13:20:36;2.60;99.90
45983;DHT22;31711;47.158;7.346;2023-12-07T13:23:02;2.70;99.90
45983;DHT22;31711;47.158;7.346;2023-12-07T13:25:29;2.70;99.90
45983;DHT22;31711;47.158;7.346;2023-12-07T13:27:54;2.80;99.90
45983;DHT22;31711;47.158;7.346;2023-12-07T13:30:20;2.90;99.90
45983;DHT22;31711;47.158;7.346;2023-12-07T13:32:46;2.90;99.90
45983;DHT22;31711;47.158;7.346;2023-12-07T13:35:13;2.80;99.90
45983;DHT22;31711;47.158;7.346;2023-12-07T13:37:39;2.50;99.90
45983;DHT22;31711;47.158;7.346;2023-12-07T13:40:06;2.40;99.90
45983;DHT22;31711;47.158;7.346;2023-12-07T13:42:36;2.20;99.90
45983;DHT22;31711;47.158;7.346;2023-12-07T13:45:03;2.20;99.90
45983;DHT22;31711;47.158;7.346;2023-12-07T13:47:29;2.30;99.90
45983;DHT22;31711;47.158;7.346;2023-12-07T13:49:58;2.30;99.90
45983;DHT22;31711;47.158;7.346;2023-12-07T13:52:25;2.50;99.90
45983;DHT22;31711;47.158;7.346;2023-12-07T13:54:51;2.60;99.90
45983;DHT22;31711;47.158;7.346;2023-12-07T13:57:19;2.80;99.90
45983;DHT22;31711;47.158;7.346;2023-12-07T13:59:50;2.90;99.90
45983;DHT22;31711;47.158;7.346;2023-12-07T14:02:16;3.00;99.90
45983;DHT22;31711;47.158;7.346;2023-12-07T14:04:43;2.90;99.90
45983;DHT22;31711;47.158;7.346;2023-12-07T14:07:14;2.80;99.90
45983;DHT22;31711;47.158;7.346;2023-12-07T14:09:45;3.00;99.90
45983;DHT22;31711;47.158;7.346;2023-12-07T14:12:13;3.10;99.90
45983;DHT22;31711;47.158;7.346;2023-12-07T14:14:45;3.20;99.90
45983;DHT22;31711;47.158;7.346;2023-12-07T14:17:14;3.20;99.90
45983;DHT22;31711;47.158;7.346;2023-12-07T14:19:41;3.20;99.90
45983;DHT22;31711;47.158;7.346;2023-12-07T14:22:08;3.20;99.90
45983;DHT22;31711;47.158;7.346;2023-12-07T14:24:36;3.10;99.90
45983;DHT22;31711;47.158;7.346;2023-12-07T14:27:06;3.00;99.90
45983;DHT22;31711;47.158;7.346;2023-12-07T14:29:33;2.70;99.90
45983;DHT22;31711;47.158;7.346;2023-12-07T14:31:59;2.70;99.90
45983;DHT22;31711;47.158;7.346;2023-12-07T14:34:26;2.60;99.90
45983;DHT22;31711;47.158;7.346;2023-12-07T14:36:55;2.60;99.90
45983;DHT22;31711;47.158;7.346;2023-12-07T14:39:21;2.50;99.90
45983;DHT22;31711;47.158;7.346;2023-12-07T14:41:48;2.60;99.90
45983;DHT22;31711;47.158;7.346;2023-12-07T14:44:16;2.80;99.90
45983;DHT22;31711;47.158;7.346;2023-12-07T14:46:46;2.80;99.90
45983;DHT22;31711;47.158;7.346;2023-12-07T14:49:13;2.50;99.90
45983;DHT22;31711;47.158;7.346;2023-12-07T14:51:40;2.40;99.90
45983;DHT22;31711;47.158;7.346;2023-12-07T14:54:06;2.10;99.90
45983;DHT22;31711;47.158;7.346;2023-12-07T14:56:37;2.20;99.90
45983;DHT22;31711;47.158;7.346;2023-12-07T14:59:03;2.10;99.90
45983;DHT22;31711;47.158;7.346;2023-12-07T15:01:29;2.20;99.90
45983;DHT22;31711;47.158;7.346;2023-12-07T15:03:59;2.00;99.90
45983;DHT22;31711;47.158;7.346;2023-12-07T15:06:26;2.10;99.90
45983;DHT22;31711;47.158;7.346;2023-12-07T15:08:52;2.00;99.90
45983;DHT22;31711;47.158;7.346;2023-12-07T15:11:18;1.90;99.90
45983;DHT22;31711;47.158;7.346;2023-12-07T15:13:44;2.00;99.90
45983;DHT22;31711;47.158;7.346;2023-12-07T15:16:11;2.20;99.90
45983;DHT22;31711;47.158;7.346;2023-12-07T15:18:38;2.20;99.90
45983;DHT22;31711;47.158;7.346;2023-12-07T15:21:07;2.30;99.90
45983;DHT22;31711;47.158;7.346;2023-12-07T15:23:33;2.30;99.90
45983;DHT22;31711;47.158;7.346;2023-12-07T15:25:59;2.40;99.90
45983;DHT22;31711;47.158;7.346;2023-12-07T15:28:25;2.40;99.90
45983;DHT22;31711;47.158;7.346;2023-12-07T15:30:51;2.30;99.90
45983;DHT22;31711;47.158;7.346;2023-12-07T15:33:17;2.30;99.90
45983;DHT22;31711;47.158;7.346;2023-12-07T15:35:43;2.30;99.90
45983;DHT22;31711;47.158;7.346;2023-12-07T15:38:09;2.20;99.90
45983;DHT22;31711;47.158;7.346;2023-12-07T15:40:38;2.10;99.90
45983;DHT22;31711;47.158;7.346;2023-12-07T15:43:04;2.10;99.90
45983;DHT22;31711;47.158;7.346;2023-12-07T15:45:31;1.90;99.90